CheckWX is a tool to help pilots better visualize weather data.  It is not intended as a substitute for an official pre-flight weather briefing.

06:10:18 UTC

KHYR METAR
Sawyer County Airport
Hayward, Wisconsin, USA
Current

17 mins ago

KHYR 230553Z AUTO 02003KT 10SM OVC004 02/02 A3008 RMK AO2 SLP199 T00220022 10044 20022 400610022 55002
Observed
Apr-23 @ 05:53 UTC
Wind
  • 020° at 3 KTS
Visibility
10 SM
Flight Rules
LIFR
Cloud Levels
  • Overcast at 400' AGL
Temperature
C / 36°F
Dewpoint
C / 36°F
Humidity
100%
Altimeter
30.08" Hg
Pressure
1018.62 hPa
Previous

1 hour ago

KHYR 230453Z AUTO 01006KT 6SM BR OVC004 03/03 A3008 RMK AO2 SLP197 T00330033
Observed
Apr-23 @ 04:53 UTC
Wind
  • 010° at 6 KTS
Visibility
6 SM
Flight Rules
LIFR
Conditions
Mist
Cloud Levels
  • Overcast at 400' AGL
Temperature
C / 37°F
Dewpoint
C / 37°F
Humidity
100%
Altimeter
30.08" Hg
Pressure
1018.62 hPa
Previous

2 hours ago

KHYR 230353Z AUTO 02010KT 10SM OVC004 04/03 A3008 RMK AO2 SLP198 T00390033
Observed
Apr-23 @ 03:53 UTC
Wind
  • 020° at 10 KTS
Visibility
10 SM
Flight Rules
LIFR
Cloud Levels
  • Overcast at 400' AGL
Temperature
C / 39°F
Dewpoint
C / 37°F
Humidity
93%
Altimeter
30.08" Hg
Pressure
1018.62 hPa